createdAt,value
2022-12-27T00:00:53.750Z,91785.94
2022-12-27T00:02:15.648Z,91782.63
2022-12-27T00:03:37.340Z,91776.63
2022-12-27T00:04:59.332Z,91780.88
2022-12-27T00:06:23.215Z,91778.50
2022-12-27T00:07:45.449Z,91784.34
2022-12-27T00:09:07.572Z,91783.69
2022-12-27T00:10:29.247Z,91784.50
2022-12-27T00:11:56.287Z,91788.75
2022-12-27T00:13:21.657Z,91783.84
2022-12-27T00:14:43.411Z,91785.72
2022-12-27T00:16:07.065Z,91787.47
2022-12-27T00:17:29.138Z,91796.63
2022-12-27T00:18:52.448Z,91796.75
2022-12-27T00:20:14.001Z,91791.72
2022-12-27T00:21:36.732Z,91789.19
2022-12-27T00:23:01.150Z,91794.22
2022-12-27T00:24:23.132Z,91792.66
2022-12-27T00:25:44.814Z,91792.66
2022-12-27T00:27:06.636Z,91797.69
2022-12-27T00:28:31.606Z,91793.59
2022-12-27T00:29:53.473Z,91789.50
2022-12-27T00:31:16.596Z,91799.19
2022-12-27T00:32:38.210Z,91789.75
2022-12-27T00:34:02.361Z,91787.22
2022-12-27T00:35:24.255Z,91789.09
2022-12-27T00:36:46.203Z,91774.13
2022-12-27T00:38:08.054Z,91784.19
2022-12-27T00:39:29.961Z,91777.56
2022-12-27T00:40:51.931Z,91778.66
2022-12-27T00:42:13.440Z,91780.38
2022-12-27T00:43:35.859Z,91776.94
2022-12-27T00:44:58.954Z,91784.50
2022-12-27T00:46:23.148Z,91776.94
2022-12-27T00:47:44.953Z,91780.25
2022-12-27T00:49:07.001Z,91772.03
2022-12-27T00:50:28.765Z,91773.25
2022-12-27T00:51:50.844Z,91773.38
2022-12-27T00:53:12.857Z,91776.03
2022-12-27T00:54:35.014Z,91769.28
2022-12-27T00:55:57.164Z,91766.75
2022-12-27T00:57:19.256Z,91766.91
2022-12-27T00:58:41.274Z,91772.59
2022-12-27T01:00:09.826Z,91771.00
2022-12-27T01:01:35.203Z,91771.78
2022-12-27T01:02:57.631Z,91770.06
2022-12-27T01:04:19.443Z,91768.34
2022-12-27T01:05:41.568Z,91769.13
2022-12-27T01:07:03.336Z,91765.03
2022-12-27T01:08:25.345Z,91768.63
2022-12-27T01:09:47.322Z,91768.63
2022-12-27T01:11:10.265Z,91764.66
2022-12-27T01:12:31.811Z,91777.91
2022-12-27T01:13:56.587Z,91771.28
2022-12-27T01:15:18.212Z,91763.72
2022-12-27T01:16:40.825Z,91750.63
2022-12-27T01:18:02.908Z,91764.16
2022-12-27T01:19:24.925Z,91757.53
2022-12-27T01:20:46.895Z,91755.97
2022-12-27T01:22:09.041Z,91752.66
2022-12-27T01:23:32.452Z,91751.97
2022-12-27T01:24:54.369Z,91748.81
2022-12-27T01:26:19.470Z,91749.59
2022-12-27T01:27:41.573Z,91742.97
2022-12-27T01:29:03.612Z,91746.56
2022-12-27T01:30:25.212Z,91743.13
2022-12-27T01:32:05.957Z,91735.56
2022-12-27T01:33:27.905Z,91739.31
2022-12-27T01:34:50.263Z,91741.69
2022-12-27T01:36:23.564Z,91746.06
2022-12-27T01:37:45.323Z,91744.34
2022-12-27T01:39:08.518Z,91744.34
2022-12-27T01:40:30.561Z,91738.81
2022-12-27T01:42:11.269Z,91741.31
2022-12-27T01:43:39.471Z,91738.81
2022-12-27T01:45:02.156Z,91736.28
2022-12-27T01:46:24.035Z,91730.56
2022-12-27T01:48:04.278Z,91732.94
2022-12-27T01:49:25.895Z,91730.41
2022-12-27T01:50:57.443Z,91733.88
2022-12-27T01:52:19.240Z,91739.84
2022-12-27T01:53:46.229Z,91736.53
2022-12-27T01:55:18.921Z,91734.81
2022-12-27T01:56:40.840Z,91726.47
2022-12-27T01:58:37.829Z,91736.53
2022-12-27T01:59:59.709Z,91726.59
2022-12-27T02:01:29.282Z,91731.66
2022-12-27T02:02:52.845Z,91725.81
2022-12-27T02:04:18.847Z,91715.88
2022-12-27T02:05:42.362Z,91719.97
2022-12-27T02:07:06.435Z,91726.75
2022-12-27T02:08:46.594Z,91725.03
2022-12-27T02:10:08.576Z,91724.88
2022-12-27T02:11:52.000Z,91729.13
2022-12-27T02:13:14.125Z,91722.50
2022-12-27T02:14:44.703Z,91717.47
2022-12-27T02:16:18.767Z,91717.47
2022-12-27T02:17:40.610Z,91720.63
2022-12-27T02:19:02.772Z,91714.66
2022-12-27T02:20:27.088Z,91710.25
2022-12-27T02:22:09.063Z,91711.88
2022-12-27T02:24:03.675Z,91704.31
2022-12-27T02:25:53.288Z,91702.03
2022-12-27T02:27:24.612Z,91698.09
2022-12-27T02:29:04.886Z,91698.38
2022-12-27T02:30:27.788Z,91704.22
2022-12-27T02:32:06.480Z,91705.16
2022-12-27T02:33:32.111Z,91699.47
2022-12-27T02:35:33.798Z,91707.97
2022-12-27T02:37:03.080Z,91708.91
2022-12-27T02:38:30.143Z,91712.34
2022-12-27T02:39:53.431Z,91709.59
2022-12-27T02:41:34.660Z,91701.25
2022-12-27T02:43:16.406Z,91711.31
2022-12-27T02:44:56.873Z,91706.28
2022-12-27T02:46:49.501Z,91718.22
2022-12-27T02:48:33.778Z,91700.75
2022-12-27T02:50:13.681Z,91698.78
2022-12-27T02:52:04.718Z,91698.63
2022-12-27T02:53:59.631Z,91706.31
2022-12-27T02:55:39.772Z,91706.63
2022-12-27T02:57:43.241Z,91700.78
2022-12-27T02:59:32.508Z,91697.47
2022-12-27T03:01:24.773Z,91698.41
2022-12-27T03:03:20.271Z,91699.19
2022-12-27T03:04:59.003Z,91696.69
2022-12-27T03:06:42.838Z,91705.03
2022-12-27T03:08:31.335Z,91697.63
2022-12-27T03:10:32.215Z,91690.06
2022-12-27T03:12:13.695Z,91688.47
2022-12-27T03:14:12.647Z,91685.16
2022-12-27T03:15:55.762Z,91694.44
2022-12-27T03:17:44.350Z,91696.03
2022-12-27T03:19:13.034Z,91696.81
2022-12-27T03:20:57.176Z,91694.31
2022-12-27T03:22:39.460Z,91700.00
2022-12-27T03:24:22.177Z,91701.72
2022-12-27T03:25:46.244Z,91705.03
2022-12-27T03:27:36.199Z,91699.19
2022-12-27T03:29:17.305Z,91700.13
2022-12-27T03:30:59.132Z,91700.13
2022-12-27T03:32:41.417Z,91694.44
2022-12-27T03:34:28.215Z,91700.69
2022-12-27T03:36:28.922Z,91700.69
2022-12-27T03:38:03.951Z,91695.78
2022-12-27T03:39:36.415Z,91689.47
2022-12-27T03:41:20.200Z,91687.72
2022-12-27T03:43:08.436Z,91686.94
2022-12-27T03:44:30.364Z,91689.31
2022-12-27T03:46:14.952Z,91691.84
2022-12-27T03:47:51.746Z,91690.03
2022-12-27T03:49:59.204Z,91687.91
2022-12-27T03:51:25.145Z,91695.63
2022-12-27T03:52:58.936Z,91684.75
2022-12-27T03:54:30.944Z,91687.41
2022-12-27T03:55:53.692Z,91701.72
2022-12-27T03:57:22.426Z,91691.00
2022-12-27T03:58:44.504Z,91681.88
2022-12-27T04:00:07.485Z,91695.38
2022-12-27T04:01:35.044Z,91689.41
2022-12-27T04:02:57.315Z,91685.19
2022-12-27T04:04:19.136Z,91675.75
2022-12-27T04:05:40.948Z,91674.03
2022-12-27T04:07:03.668Z,91667.13
2022-12-27T04:08:43.760Z,91672.31
2022-12-27T04:10:24.287Z,91676.41
2022-12-27T04:12:04.733Z,91670.44
2022-12-27T04:13:45.015Z,91671.22
2022-12-27T04:15:25.162Z,91679.72
2022-12-27T04:17:05.636Z,91674.81
2022-12-27T04:18:45.638Z,91673.09
2022-12-27T04:20:26.459Z,91671.38
2022-12-27T04:22:06.501Z,91676.25
2022-12-27T04:23:46.773Z,91663.03
2022-12-27T04:25:27.600Z,91660.22
2022-12-27T04:27:08.931Z,91660.88
2022-12-27T04:28:48.909Z,91666.84
2022-12-27T04:30:29.784Z,91676.25
2022-12-27T04:32:10.315Z,91673.25
2022-12-27T04:33:50.530Z,91683.06
2022-12-27T04:35:12.511Z,91673.56
2022-12-27T04:36:34.368Z,91673.56
2022-12-27T04:37:56.446Z,91670.25
2022-12-27T04:39:18.539Z,91674.50
2022-12-27T04:40:58.686Z,91684.84
2022-12-27T04:42:38.718Z,91680.75
2022-12-27T04:44:18.820Z,91673.44
2022-12-27T04:45:59.031Z,91672.66
2022-12-27T04:47:42.283Z,91665.38
2022-12-27T04:49:23.029Z,91666.47
2022-12-27T04:51:03.389Z,91671.78
2022-12-27T04:52:44.006Z,91664.78
2022-12-27T04:54:38.399Z,91663.47
2022-12-27T04:56:00.479Z,91674.97
2022-12-27T04:57:22.395Z,91671.03
2022-12-27T04:59:04.287Z,91672.47
2022-12-27T05:00:48.290Z,91671.16
2022-12-27T05:02:10.505Z,91672.38
2022-12-27T05:03:32.292Z,91670.78
2022-12-27T05:04:54.058Z,91666.53
2022-12-27T05:06:16.609Z,91666.66
2022-12-27T05:07:57.410Z,91664.03
2022-12-27T05:09:39.433Z,91670.66
2022-12-27T05:11:19.892Z,91675.69
2022-12-27T05:13:00.587Z,91678.34
2022-12-27T05:14:22.289Z,91675.69
2022-12-27T05:15:44.172Z,91675.81
2022-12-27T05:17:06.736Z,91684.16
2022-12-27T05:18:28.746Z,91684.03
2022-12-27T05:19:50.556Z,91679.78
2022-12-27T05:21:12.389Z,91672.88
2022-12-27T05:22:52.755Z,91668.34
2022-12-27T05:24:33.142Z,91664.13
2022-12-27T05:25:54.849Z,91669.81
2022-12-27T05:27:17.527Z,91669.81
2022-12-27T05:28:39.122Z,91666.63
2022-12-27T05:30:00.952Z,91669.00
2022-12-27T05:31:24.227Z,91681.72
2022-12-27T05:32:46.224Z,91674.97
2022-12-27T05:34:08.048Z,91681.72
2022-12-27T05:35:29.777Z,91691.00
2022-12-27T05:36:54.548Z,91690.88
2022-12-27T05:38:16.467Z,91690.72
2022-12-27T05:39:38.371Z,91690.06
2022-12-27T05:41:02.112Z,91695.25
2022-12-27T05:42:23.740Z,91683.31
2022-12-27T05:43:45.706Z,91689.00
2022-12-27T05:45:08.156Z,91689.00
2022-12-27T05:46:30.007Z,91687.28
2022-12-27T05:47:53.136Z,91693.91
2022-12-27T05:49:15.101Z,91686.22
2022-12-27T05:50:37.008Z,91691.13
2022-12-27T05:52:07.380Z,91692.56
2022-12-27T05:53:29.057Z,91687.41
2022-12-27T05:54:51.030Z,91691.50
2022-12-27T05:56:16.227Z,91696.00
2022-12-27T05:57:38.032Z,91689.91
2022-12-27T05:58:59.844Z,91697.31
2022-12-27T06:00:22.716Z,91688.84
2022-12-27T06:01:44.779Z,91699.56
2022-12-27T06:03:06.560Z,91693.59
2022-12-27T06:04:28.924Z,91681.78
2022-12-27T06:05:50.587Z,91689.88
2022-12-27T06:07:13.763Z,91687.88
2022-12-27T06:08:36.171Z,91694.34
2022-12-27T06:09:58.086Z,91692.63
2022-12-27T06:11:20.756Z,91705.34
2022-12-27T06:12:42.645Z,91698.09
2022-12-27T06:14:04.212Z,91703.00
2022-12-27T06:15:26.354Z,91688.84
2022-12-27T06:16:48.112Z,91690.56
2022-12-27T06:18:09.838Z,91677.97
2022-12-27T06:19:31.626Z,91680.22
2022-12-27T06:20:53.840Z,91679.81
2022-12-27T06:22:15.864Z,91679.38
2022-12-27T06:23:40.771Z,91676.19
2022-12-27T06:25:02.871Z,91691.50
2022-12-27T06:26:27.911Z,91697.91
2022-12-27T06:27:49.578Z,91706.13
2022-12-27T06:29:13.050Z,91709.84
2022-12-27T06:30:36.470Z,91701.75
2022-12-27T06:31:58.545Z,91716.00
2022-12-27T06:33:20.382Z,91703.41
2022-12-27T06:34:42.456Z,91704.88
2022-12-27T06:36:09.328Z,91702.13
2022-12-27T06:37:31.530Z,91702.50
2022-12-27T06:38:53.262Z,91713.78
2022-12-27T06:40:15.012Z,91708.13
2022-12-27T06:41:36.646Z,91699.00
2022-12-27T06:42:58.606Z,91701.38
2022-12-27T06:44:20.243Z,91697.13
2022-12-27T06:45:42.165Z,91701.09
2022-12-27T06:47:04.583Z,91695.81
2022-12-27T06:48:27.109Z,91705.59
2022-12-27T06:49:48.870Z,91701.34
2022-12-27T06:51:13.080Z,91705.31
2022-12-27T06:52:34.687Z,91704.34
2022-12-27T06:53:56.647Z,91708.03
2022-12-27T06:55:18.518Z,91695.53
2022-12-27T06:56:40.506Z,91694.53
2022-12-27T06:58:02.356Z,91689.72
2022-12-27T06:59:25.510Z,91696.94
2022-12-27T07:00:47.477Z,91703.44
2022-12-27T07:02:11.080Z,91698.38
2022-12-27T07:03:32.865Z,91691.63
2022-12-27T07:04:55.084Z,91688.28
2022-12-27T07:06:17.154Z,91693.16
2022-12-27T07:07:38.858Z,91694.91
2022-12-27T07:09:01.810Z,91696.19
2022-12-27T07:10:23.759Z,91693.03
2022-12-27T07:11:45.685Z,91684.91
2022-12-27T07:13:07.315Z,91682.59
2022-12-27T07:14:29.202Z,91688.00
2022-12-27T07:15:51.309Z,91687.38
2022-12-27T07:17:13.192Z,91688.75
2022-12-27T07:18:35.654Z,91680.78
2022-12-27T07:19:58.318Z,91683.56
2022-12-27T07:21:23.297Z,91684.88
2022-12-27T07:22:45.148Z,91680.91
2022-12-27T07:24:07.355Z,91680.59
2022-12-27T07:25:29.224Z,91687.41
2022-12-27T07:26:51.295Z,91683.09
2022-12-27T07:28:13.047Z,91685.44
2022-12-27T07:29:36.367Z,91677.72
2022-12-27T07:31:05.803Z,91681.59
2022-12-27T07:32:27.404Z,91681.69
2022-12-27T07:33:49.261Z,91680.44
2022-12-27T07:35:11.218Z,91676.34
2022-12-27T07:36:37.184Z,91675.22
2022-12-27T07:37:59.307Z,91675.34
2022-12-27T07:39:20.872Z,91680.44
2022-12-27T07:40:42.793Z,91681.75
2022-12-27T07:42:08.080Z,91678.16
2022-12-27T07:43:36.442Z,91678.28
2022-12-27T07:44:58.422Z,91678.22
2022-12-27T07:46:22.495Z,91677.72
2022-12-27T07:47:44.123Z,91669.38
2022-12-27T07:49:05.848Z,91669.44
2022-12-27T07:50:27.488Z,91669.09
2022-12-27T07:51:49.457Z,91664.88
2022-12-27T07:53:11.367Z,91664.09
2022-12-27T07:54:33.302Z,91668.25
2022-12-27T07:55:54.878Z,91671.78
2022-12-27T07:57:16.588Z,91666.09
2022-12-27T07:58:44.176Z,91666.09
2022-12-27T08:00:07.179Z,91666.63
2022-12-27T08:01:54.677Z,91664.03
2022-12-27T08:03:18.519Z,91665.94
2022-12-27T08:04:40.557Z,91669.66
2022-12-27T08:06:02.506Z,91664.53
2022-12-27T08:07:26.232Z,91665.41
2022-12-27T08:08:49.042Z,91671.31
2022-12-27T08:10:11.270Z,91664.13
2022-12-27T08:11:33.239Z,91666.41
2022-12-27T08:12:54.909Z,91666.75
2022-12-27T08:14:16.920Z,91668.75
2022-12-27T08:15:41.678Z,91666.47
2022-12-27T08:17:07.008Z,91666.91
2022-12-27T08:18:29.063Z,91661.19
2022-12-27T08:19:56.740Z,91656.44
2022-12-27T08:21:19.251Z,91659.38
2022-12-27T08:22:41.493Z,91656.47
2022-12-27T08:24:03.458Z,91655.44
2022-12-27T08:25:25.563Z,91658.63
2022-12-27T08:26:47.392Z,91660.97
2022-12-27T08:28:13.476Z,91672.84
2022-12-27T08:29:35.554Z,91666.16
2022-12-27T08:30:58.054Z,91676.66
2022-12-27T08:32:19.800Z,91666.78
2022-12-27T08:33:42.151Z,91669.34
2022-12-27T08:35:25.016Z,91666.06
2022-12-27T08:36:55.303Z,91660.94
2022-12-27T08:38:17.670Z,91655.75
2022-12-27T08:39:39.619Z,91662.56
2022-12-27T08:41:01.726Z,91653.44
2022-12-27T08:42:24.834Z,91653.78
2022-12-27T08:43:46.484Z,91648.59
2022-12-27T08:45:08.902Z,91652.56
2022-12-27T08:46:31.294Z,91640.09
2022-12-27T08:47:53.363Z,91645.50
2022-12-27T08:49:17.738Z,91640.19
2022-12-27T08:50:39.659Z,91640.00
2022-12-27T08:52:01.531Z,91644.38
2022-12-27T08:53:23.342Z,91638.28
2022-12-27T08:54:45.217Z,91627.78
2022-12-27T08:56:07.518Z,91636.38
2022-12-27T08:57:29.319Z,91628.09
2022-12-27T08:58:51.549Z,91622.84
2022-12-27T09:00:13.843Z,91622.78
2022-12-27T09:01:35.738Z,91618.72
2022-12-27T09:02:58.105Z,91618.66
2022-12-27T09:04:19.913Z,91611.69
2022-12-27T09:05:42.257Z,91608.59
2022-12-27T09:07:05.225Z,91606.69
2022-12-27T09:08:26.994Z,91597.97
2022-12-27T09:09:48.797Z,91602.25
2022-12-27T09:11:13.943Z,91605.66
2022-12-27T09:12:35.860Z,91600.34
2022-12-27T09:14:00.746Z,91593.84
2022-12-27T09:15:22.424Z,91598.00
2022-12-27T09:16:44.280Z,91583.50
2022-12-27T09:18:07.340Z,91594.56
2022-12-27T09:19:28.875Z,91611.78
2022-12-27T09:20:50.787Z,91619.94
2022-12-27T09:22:12.795Z,91619.22
2022-12-27T09:23:34.904Z,91619.91
2022-12-27T09:24:56.840Z,91617.84
2022-12-27T09:26:21.013Z,91621.94
2022-12-27T09:27:42.770Z,91626.38
2022-12-27T09:29:04.628Z,91618.16
2022-12-27T09:30:27.216Z,91629.50
2022-12-27T09:31:48.905Z,91630.88
2022-12-27T09:33:10.743Z,91620.72
2022-12-27T09:34:32.688Z,91634.25
2022-12-27T09:36:00.362Z,91621.91
2022-12-27T09:37:22.080Z,91624.38
2022-12-27T09:38:44.468Z,91622.97
2022-12-27T09:40:07.234Z,91629.59
2022-12-27T09:42:25.973Z,91622.25
2022-12-27T09:43:23.908Z,91637.78
2022-12-27T09:44:55.155Z,91632.56
2022-12-27T09:46:28.831Z,91619.50
2022-12-27T09:47:58.628Z,91620.28
2022-12-27T09:49:54.649Z,91621.75
2022-12-27T09:51:25.506Z,91632.50
2022-12-27T09:52:55.903Z,91625.97
2022-12-27T09:54:25.583Z,91631.88
2022-12-27T09:55:57.498Z,91630.59
2022-12-27T09:57:26.564Z,91631.09
2022-12-27T09:58:51.843Z,91634.91
2022-12-27T10:00:34.500Z,91621.31
2022-12-27T10:01:57.681Z,91615.00
2022-12-27T10:03:23.890Z,91619.56
2022-12-27T10:05:18.534Z,91618.44
2022-12-27T10:06:45.919Z,91611.41
2022-12-27T10:08:27.438Z,91612.91
2022-12-27T10:10:05.124Z,91603.47
2022-12-27T10:11:49.716Z,91606.47
2022-12-27T10:13:11.572Z,91605.97
2022-12-27T10:15:11.000Z,91611.91
2022-12-27T10:16:37.379Z,91608.78
2022-12-27T10:18:07.766Z,91599.94
2022-12-27T10:19:41.745Z,91606.09
2022-12-27T10:21:21.885Z,91596.22
2022-12-27T10:23:06.167Z,91598.41
2022-12-27T10:24:57.174Z,91603.00
2022-12-27T10:26:20.801Z,91597.66
2022-12-27T10:27:42.718Z,91585.69
2022-12-27T10:29:25.414Z,91585.91
2022-12-27T10:30:47.264Z,91592.00
2022-12-27T10:32:12.643Z,91581.00
2022-12-27T10:33:35.747Z,91580.00
2022-12-27T10:35:02.023Z,91577.44
2022-12-27T10:36:27.328Z,91580.22
2022-12-27T10:37:50.051Z,91581.81
2022-12-27T10:39:18.113Z,91572.34
2022-12-27T10:40:52.628Z,91579.25
2022-12-27T10:42:41.951Z,91578.66
2022-12-27T10:44:10.459Z,91577.09
2022-12-27T10:45:39.199Z,91571.41
2022-12-27T10:47:01.858Z,91575.94
2022-12-27T10:48:36.411Z,91572.19
2022-12-27T10:50:14.032Z,91558.78
2022-12-27T10:51:38.444Z,91558.00
2022-12-27T10:53:00.434Z,91553.50
2022-12-27T10:54:28.950Z,91552.91
2022-12-27T10:55:50.695Z,91557.63
2022-12-27T10:57:28.875Z,91551.13
2022-12-27T10:59:12.388Z,91542.06
2022-12-27T11:00:34.258Z,91550.53
2022-12-27T11:02:02.717Z,91540.50
2022-12-27T11:03:26.360Z,91545.41
2022-12-27T11:05:00.053Z,91540.13
2022-12-27T11:06:24.877Z,91540.69
2022-12-27T11:07:46.624Z,91534.22
2022-12-27T11:09:32.581Z,91541.84
2022-12-27T11:11:17.208Z,91531.03
2022-12-27T11:12:39.209Z,91540.28
2022-12-27T11:14:12.112Z,91536.75
2022-12-27T11:15:40.361Z,91539.66
2022-12-27T11:17:02.011Z,91535.56
2022-12-27T11:18:23.661Z,91537.72
2022-12-27T11:19:47.830Z,91544.25
2022-12-27T11:21:22.493Z,91542.47
2022-12-27T11:22:49.740Z,91542.69
2022-12-27T11:24:17.903Z,91536.56
2022-12-27T11:26:02.958Z,91541.88
2022-12-27T11:27:27.856Z,91537.34
2022-12-27T11:29:02.012Z,91535.41
2022-12-27T11:30:38.801Z,91533.06
2022-12-27T11:32:07.595Z,91525.19
2022-12-27T11:33:36.106Z,91533.47
2022-12-27T11:34:58.185Z,91534.03
2022-12-27T11:36:35.742Z,91526.75
2022-12-27T11:37:57.795Z,91531.09
2022-12-27T11:39:43.114Z,91526.56
2022-12-27T11:41:10.914Z,91526.16
2022-12-27T11:42:45.900Z,91531.50
2022-12-27T11:44:32.421Z,91535.81
2022-12-27T11:45:56.419Z,91534.25
2022-12-27T11:47:54.687Z,91534.25
2022-12-27T11:49:32.043Z,91530.13
2022-12-27T11:51:13.495Z,91541.50
2022-12-27T11:53:03.118Z,91534.03
2022-12-27T11:54:40.956Z,91540.16
2022-12-27T11:56:15.068Z,91541.72
2022-12-27T11:58:07.850Z,91543.28
2022-12-27T11:59:47.517Z,91542.50
2022-12-27T12:01:51.049Z,91547.41
2022-12-27T12:03:34.530Z,91554.31
2022-12-27T12:05:27.225Z,91549.78
2022-12-27T12:07:04.347Z,91551.16
2022-12-27T12:08:37.889Z,91537.78
2022-12-27T12:10:17.768Z,91546.56
2022-12-27T12:11:58.133Z,91548.91
2022-12-27T12:13:38.775Z,91551.09
2022-12-27T12:15:12.394Z,91551.72
2022-12-27T12:17:16.319Z,91549.16
2022-12-27T12:18:40.916Z,91551.34
2022-12-27T12:20:36.446Z,91544.03
2022-12-27T12:22:43.286Z,91545.25
2022-12-27T12:24:23.176Z,91546.84
2022-12-27T12:25:50.970Z,91544.88
2022-12-27T12:27:40.479Z,91539.94
2022-12-27T12:29:17.525Z,91549.22
2022-12-27T12:30:56.701Z,91546.47
2022-12-27T12:32:52.635Z,91550.19
2022-12-27T12:34:51.324Z,91549.22
2022-12-27T12:36:22.059Z,91549.22
2022-12-27T12:37:49.674Z,91541.13
2022-12-27T12:39:34.513Z,91541.75
2022-12-27T12:41:14.912Z,91543.72
2022-12-27T12:42:45.547Z,91543.13
2022-12-27T12:44:41.053Z,91549.63
2022-12-27T12:46:21.595Z,91545.66
2022-12-27T12:47:49.539Z,91553.16
2022-12-27T12:49:30.674Z,91555.53
2022-12-27T12:51:08.144Z,91551.19
2022-12-27T12:53:06.513Z,91556.09
2022-12-27T12:54:43.273Z,91552.75
2022-12-27T12:56:14.035Z,91558.88
2022-12-27T12:58:05.861Z,91561.41
2022-12-27T12:59:39.206Z,91561.81
2022-12-27T13:01:19.291Z,91559.47
2022-12-27T13:03:36.402Z,91552.19
2022-12-27T13:05:25.338Z,91547.47
2022-12-27T13:07:25.165Z,91549.25
2022-12-27T13:09:18.112Z,91560.66
2022-12-27T13:11:22.916Z,91561.84
2022-12-27T13:12:59.726Z,91573.66
2022-12-27T13:14:42.625Z,91568.13
2022-12-27T13:16:23.362Z,91569.69
2022-12-27T13:18:18.648Z,91575.22
2022-12-27T13:20:16.601Z,91581.88
2022-12-27T13:21:59.636Z,91587.59
2022-12-27T13:23:42.663Z,91577.75
2022-12-27T13:25:07.155Z,91584.25
2022-12-27T13:26:37.266Z,91585.03
2022-12-27T13:28:04.869Z,91589.97
2022-12-27T13:29:45.106Z,91590.34
2022-12-27T13:31:24.733Z,91581.31
2022-12-27T13:32:46.349Z,91589.75
2022-12-27T13:34:26.091Z,91577.38
2022-12-27T13:36:04.001Z,91581.50
2022-12-27T13:37:36.550Z,91577.59
2022-12-27T13:39:28.057Z,91574.63
2022-12-27T13:41:13.243Z,91576.59
2022-12-27T13:42:49.536Z,91579.75
2022-12-27T13:45:01.657Z,91584.44
2022-12-27T13:46:42.925Z,91585.44
2022-12-27T13:48:26.276Z,91590.94
2022-12-27T13:50:45.689Z,91590.75
2022-12-27T13:52:38.553Z,91579.53
2022-12-27T13:54:17.770Z,91581.50
2022-12-27T13:56:43.512Z,91581.91
2022-12-27T13:57:57.883Z,91583.88
2022-12-27T13:59:36.797Z,91585.84
2022-12-27T14:01:26.561Z,91590.56
2022-12-27T14:03:22.640Z,91583.47
2022-12-27T14:05:01.440Z,91591.13
2022-12-27T14:06:40.760Z,91594.28
2022-12-27T14:08:15.809Z,91586.19
2022-12-27T14:10:07.883Z,91596.59
2022-12-27T14:11:52.696Z,91590.31
2022-12-27T14:13:26.733Z,91598.38
2022-12-27T14:14:49.312Z,91597.94
2022-12-27T14:16:38.234Z,91593.47
2022-12-27T14:18:42.152Z,91597.94
2022-12-27T14:20:21.683Z,91601.09
2022-12-27T14:21:48.980Z,91607.19
2022-12-27T14:23:25.760Z,91603.66
2022-12-27T14:24:53.822Z,91595.22
2022-12-27T14:26:37.601Z,91599.53
2022-12-27T14:28:36.078Z,91606.78
2022-12-27T14:30:09.765Z,91598.31
2022-12-27T14:32:14.806Z,91604.59
2022-12-27T14:33:54.446Z,91605.59
2022-12-27T14:35:19.946Z,91604.81
2022-12-27T14:37:06.603Z,91610.09
2022-12-27T14:38:43.105Z,91607.16
2022-12-27T14:40:35.307Z,91609.88
2022-12-27T14:42:43.712Z,91608.50
2022-12-27T14:44:36.209Z,91612.44
2022-12-27T14:46:35.505Z,91618.31
2022-12-27T14:48:48.469Z,91609.09
2022-12-27T14:50:25.575Z,91617.13
2022-12-27T14:52:02.371Z,91609.69
2022-12-27T14:53:38.350Z,91619.09
2022-12-27T14:55:22.027Z,91609.25
2022-12-27T14:57:13.565Z,91614.19
2022-12-27T14:59:05.849Z,91613.41
2022-12-27T15:00:32.525Z,91611.44
2022-12-27T15:02:06.087Z,91615.34
2022-12-27T15:03:41.456Z,91617.34
2022-12-27T15:05:22.384Z,91621.22
2022-12-27T15:07:05.732Z,91614.75
2022-12-27T15:08:50.504Z,91613.22
2022-12-27T15:10:12.008Z,91612.78
2022-12-27T15:12:04.817Z,91619.44
2022-12-27T15:14:02.211Z,91618.25
2022-12-27T15:15:56.389Z,91617.84
2022-12-27T15:17:53.426Z,91616.66
2022-12-27T15:19:34.161Z,91606.84
2022-12-27T15:20:58.829Z,91614.50
2022-12-27T15:22:35.606Z,91604.53
2022-12-27T15:24:21.593Z,91612.53
2022-12-27T15:26:20.469Z,91609.78
2022-12-27T15:27:42.215Z,91611.09
2022-12-27T15:29:09.025Z,91602.84
2022-12-27T15:30:57.151Z,91606.19
2022-12-27T15:32:52.821Z,91605.56
2022-12-27T15:34:36.182Z,91611.44
2022-12-27T15:36:09.397Z,91610.63
2022-12-27T15:38:04.634Z,91604.69
2022-12-27T15:39:35.904Z,91609.22
2022-12-27T15:41:28.428Z,91610.56
2022-12-27T15:43:22.362Z,91615.28
2022-12-27T15:45:04.098Z,91609.38
2022-12-27T15:47:10.039Z,91612.47
2022-12-27T15:48:56.510Z,91617.97
2022-12-27T15:50:42.823Z,91615.78
2022-12-27T15:52:24.472Z,91617.13
2022-12-27T15:54:27.433Z,91624.00
2022-12-27T15:56:13.140Z,91617.69
2022-12-27T15:58:03.575Z,91619.25
2022-12-27T15:59:46.793Z,91615.13
2022-12-27T16:01:25.437Z,91616.91
2022-12-27T16:02:48.092Z,91620.47
2022-12-27T16:04:56.797Z,91628.31
2022-12-27T16:06:34.160Z,91631.22
2022-12-27T16:07:59.036Z,91619.81
2022-12-27T16:09:27.663Z,91626.69
2022-12-27T16:10:50.767Z,91627.66
2022-12-27T16:12:31.041Z,91627.84
2022-12-27T16:14:23.468Z,91635.88
2022-12-27T16:15:47.808Z,91635.25
2022-12-27T16:17:27.649Z,91632.09
2022-12-27T16:19:10.401Z,91633.06
2022-12-27T16:20:33.247Z,91634.66
2022-12-27T16:21:55.283Z,91637.19
2022-12-27T16:23:24.377Z,91635.63
2022-12-27T16:24:46.166Z,91640.72
2022-12-27T16:26:16.194Z,91640.13
2022-12-27T16:27:38.045Z,91642.06
2022-12-27T16:29:28.453Z,91644.03
2022-12-27T16:31:02.025Z,91640.69
2022-12-27T16:32:26.709Z,91642.00
2022-12-27T16:33:50.289Z,91642.81
2022-12-27T16:35:15.868Z,91641.84
2022-12-27T16:36:47.686Z,91644.41
2022-12-27T16:38:22.515Z,91644.41
2022-12-27T16:40:16.281Z,91632.66
2022-12-27T16:41:49.844Z,91642.50
2022-12-27T16:43:11.303Z,91644.25
2022-12-27T16:44:53.794Z,91643.84
2022-12-27T16:46:31.124Z,91639.91
2022-12-27T16:47:58.651Z,91645.38
2022-12-27T16:50:05.601Z,91645.72
2022-12-27T16:51:50.981Z,91649.06
2022-12-27T16:53:41.219Z,91649.13
2022-12-27T16:55:21.774Z,91659.06
2022-12-27T16:56:48.090Z,91655.91
2022-12-27T16:58:25.146Z,91653.44
2022-12-27T17:00:35.362Z,91655.56
2022-12-27T17:01:57.890Z,91662.78
2022-12-27T17:03:35.429Z,91661.19
2022-12-27T17:05:00.782Z,91663.94
2022-12-27T17:06:31.911Z,91658.22
2022-12-27T17:07:55.898Z,91664.50
2022-12-27T17:09:20.859Z,91662.31
2022-12-27T17:10:51.435Z,91666.59
2022-12-27T17:12:18.556Z,91666.97
2022-12-27T17:13:51.144Z,91667.75
2022-12-27T17:15:13.722Z,91665.41
2022-12-27T17:16:57.363Z,91663.22
2022-12-27T17:18:30.832Z,91670.25
2022-12-27T17:20:00.903Z,91664.56
2022-12-27T17:21:30.522Z,91666.50
2022-12-27T17:22:57.074Z,91667.44
2022-12-27T17:24:22.228Z,91662.34
2022-12-27T17:25:52.845Z,91666.84
2022-12-27T17:28:07.977Z,91667.81
2022-12-27T17:29:45.795Z,91670.75
2022-12-27T17:31:34.699Z,91670.13
2022-12-27T17:33:14.738Z,91667.97
2022-12-27T17:35:02.399Z,91667.16
2022-12-27T17:36:27.399Z,91670.69
2022-12-27T17:38:01.220Z,91668.16
2022-12-27T17:39:40.713Z,91679.13
2022-12-27T17:41:49.311Z,91680.06
2022-12-27T17:43:47.602Z,91682.00
2022-12-27T17:45:31.285Z,91678.84
2022-12-27T17:47:27.167Z,91682.28
2022-12-27T17:48:52.416Z,91677.19
2022-12-27T17:50:18.365Z,91673.38
2022-12-27T17:52:03.324Z,91674.53
2022-12-27T17:53:44.468Z,91671.75
2022-12-27T17:55:38.623Z,91676.44
2022-12-27T17:57:19.712Z,91667.38
2022-12-27T17:58:41.947Z,91670.47
2022-12-27T18:00:06.642Z,91675.75
2022-12-27T18:01:37.066Z,91672.00
2022-12-27T18:03:02.591Z,91676.47
2022-12-27T18:04:33.540Z,91679.19
2022-12-27T18:05:55.504Z,91678.56